createdAt,value
2019-01-02T00:00:03.165Z,4.57
2019-01-02T00:02:08.371Z,4.37
2019-01-02T00:04:14.402Z,4.43
2019-01-02T00:06:39.496Z,4.07
2019-01-02T00:08:47.987Z,4.50
2019-01-02T00:10:54.367Z,4.97
2019-01-02T00:13:03.246Z,4.80
2019-01-02T00:15:08.918Z,4.27
2019-01-02T00:17:18.937Z,4.47
2019-01-02T00:19:31.666Z,4.67
2019-01-02T00:21:38.287Z,3.50
2019-01-02T00:23:43.115Z,3.53
2019-01-02T00:25:48.353Z,4.50
2019-01-02T00:27:58.610Z,3.87
2019-01-02T00:30:05.718Z,4.90
2019-01-02T00:34:26.728Z,4.27
2019-01-02T00:36:34.255Z,4.30
2019-01-02T00:38:40.274Z,4.67
2019-01-02T00:40:45.488Z,4.63
2019-01-02T00:42:55.299Z,4.10
2019-01-02T00:45:03.445Z,5.17
2019-01-02T00:47:09.901Z,5.53
2019-01-02T00:49:17.220Z,4.90
2019-01-02T00:51:28.281Z,4.67
2019-01-02T00:53:33.497Z,4.93
2019-01-02T00:55:38.236Z,4.40
2019-01-02T00:57:43.048Z,4.93
2019-01-02T00:59:47.884Z,5.03
2019-01-02T01:01:53.139Z,3.73
2019-01-02T01:03:58.674Z,4.50
2019-01-02T01:06:05.925Z,4.63
2019-01-02T01:08:10.832Z,4.87
2019-01-02T01:10:17.782Z,4.73
2019-01-02T01:12:22.865Z,5.23
2019-01-02T01:14:27.671Z,4.27
2019-01-02T01:16:33.967Z,4.90
2019-01-02T01:18:39.222Z,4.97
2019-01-02T01:20:44.088Z,5.13
2019-01-02T01:22:48.920Z,4.77
2019-01-02T01:24:53.865Z,4.10
2019-01-02T01:26:58.637Z,4.50
2019-01-02T01:29:03.755Z,4.70
2019-01-02T01:31:11.064Z,4.80
2019-01-02T01:33:16.250Z,4.80
2019-01-02T01:35:21.609Z,4.63
2019-01-02T01:37:26.800Z,4.70
2019-01-02T01:39:31.593Z,3.97
2019-01-02T01:41:36.866Z,5.60
2019-01-02T01:43:41.975Z,5.07
2019-01-02T01:45:46.825Z,5.97
2019-01-02T01:47:51.689Z,4.43
2019-01-02T01:50:00.176Z,5.00
2019-01-02T01:52:05.057Z,4.47
2019-01-02T01:54:10.940Z,5.17
2019-01-02T01:56:16.102Z,5.40
2019-01-02T01:58:20.871Z,5.03
2019-01-02T02:00:26.521Z,5.07
2019-01-02T02:02:31.480Z,5.50
2019-01-02T02:04:36.391Z,5.20
2019-01-02T02:06:42.168Z,5.43
2019-01-02T02:08:46.924Z,5.67
2019-01-02T02:10:54.235Z,5.03
2019-01-02T02:12:59.001Z,6.27
2019-01-02T02:15:03.965Z,4.93
2019-01-02T02:17:09.089Z,4.83
2019-01-02T02:19:14.418Z,5.07
2019-01-02T02:21:19.171Z,5.57
2019-01-02T02:23:24.395Z,5.47
2019-01-02T02:25:29.779Z,5.50
2019-01-02T02:27:34.849Z,5.10
2019-01-02T02:29:40.070Z,5.93
2019-01-02T02:31:46.426Z,5.03
2019-01-02T02:33:51.272Z,6.13
2019-01-02T02:35:57.004Z,5.60
2019-01-02T02:38:02.181Z,5.80
2019-01-02T02:40:08.265Z,4.93
2019-01-02T02:42:13.125Z,5.93
2019-01-02T02:44:18.365Z,5.37
2019-01-02T02:46:23.575Z,5.97
2019-01-02T02:48:28.421Z,5.63
2019-01-02T02:50:34.019Z,6.20
2019-01-02T02:52:43.036Z,5.60
2019-01-02T02:54:49.985Z,5.63
2019-01-02T02:56:59.703Z,5.63
2019-01-02T02:59:05.010Z,5.13
2019-01-02T03:01:10.319Z,5.70
2019-01-02T03:03:15.493Z,5.63
2019-01-02T03:05:20.458Z,6.30
2019-01-02T03:07:25.279Z,7.27
2019-01-02T03:09:30.903Z,6.20
2019-01-02T03:11:35.723Z,6.63
2019-01-02T03:13:40.508Z,5.77
2019-01-02T03:15:46.294Z,6.97
2019-01-02T03:17:54.538Z,6.37
2019-01-02T03:19:59.500Z,5.63
2019-01-02T03:22:04.931Z,5.60
2019-01-02T03:24:09.493Z,5.67
2019-01-02T03:26:14.313Z,5.80
2019-01-02T03:28:19.113Z,7.27
2019-01-02T03:30:27.125Z,6.07
2019-01-02T03:32:32.327Z,6.80
2019-01-02T03:34:37.563Z,5.63
2019-01-02T03:36:45.857Z,5.63
2019-01-02T03:38:50.887Z,7.40
2019-01-02T03:40:56.124Z,7.03
2019-01-02T03:43:01.047Z,6.37
2019-01-02T03:45:07.671Z,6.97
2019-01-02T03:47:12.910Z,6.33
2019-01-02T03:49:17.659Z,5.63
2019-01-02T03:51:22.486Z,6.10
2019-01-02T03:53:29.270Z,5.87
2019-01-02T03:55:34.172Z,6.43
2019-01-02T03:57:39.594Z,6.50
2019-01-02T03:59:44.423Z,6.10
2019-01-02T04:01:49.161Z,6.13
2019-01-02T04:03:53.964Z,7.00
2019-01-02T04:06:05.062Z,6.27
2019-01-02T04:08:12.011Z,6.13
2019-01-02T04:10:16.815Z,6.20
2019-01-02T04:12:23.115Z,5.50
2019-01-02T04:14:27.931Z,6.53
2019-01-02T04:16:32.727Z,5.40
2019-01-02T04:18:37.880Z,5.67
2019-01-02T04:20:45.541Z,6.03
2019-01-02T04:22:50.640Z,6.23
2019-01-02T04:24:57.095Z,6.13
2019-01-02T04:27:04.656Z,6.17
2019-01-02T04:29:09.508Z,6.30
2019-01-02T04:31:16.587Z,6.37
2019-01-02T04:33:24.210Z,5.17
2019-01-02T04:35:29.048Z,5.77
2019-01-02T04:37:34.239Z,5.53
2019-01-02T04:39:40.530Z,5.87
2019-01-02T04:41:45.439Z,5.73
2019-01-02T04:43:50.508Z,5.87
2019-01-02T04:45:55.337Z,6.27
2019-01-02T04:48:00.345Z,5.80
2019-01-02T04:50:07.979Z,6.03
2019-01-02T04:52:12.766Z,5.47
2019-01-02T04:54:17.543Z,6.03
2019-01-02T04:56:22.687Z,5.30
2019-01-02T04:58:27.522Z,6.23
2019-01-02T05:00:32.282Z,5.93
2019-01-02T05:02:38.372Z,5.97
2019-01-02T05:04:43.156Z,5.53
2019-01-02T05:06:49.741Z,5.73
2019-01-02T05:08:56.091Z,5.83
2019-01-02T05:11:00.832Z,5.30
2019-01-02T05:13:05.662Z,6.27
2019-01-02T05:15:13.706Z,5.53
2019-01-02T05:17:18.586Z,5.27
2019-01-02T05:19:25.832Z,5.10
2019-01-02T05:21:31.056Z,5.30
2019-01-02T05:23:35.966Z,5.40
2019-01-02T05:25:40.816Z,5.43
2019-01-02T05:27:47.181Z,4.97
2019-01-02T05:29:52.081Z,7.20
2019-01-02T05:31:56.862Z,6.80
2019-01-02T05:34:03.551Z,6.37
2019-01-02T05:36:09.964Z,5.83
2019-01-02T05:38:16.066Z,5.93
2019-01-02T05:40:23.630Z,5.90
2019-01-02T05:42:28.481Z,6.60
2019-01-02T05:44:33.494Z,6.57
2019-01-02T05:46:40.092Z,5.70
2019-01-02T05:48:47.584Z,5.60
2019-01-02T05:50:52.530Z,6.47
2019-01-02T05:52:57.767Z,6.73
2019-01-02T05:55:02.517Z,5.97
2019-01-02T05:57:08.108Z,5.97
2019-01-02T05:59:13.793Z,5.23
2019-01-02T06:01:19.762Z,6.00
2019-01-02T06:03:29.056Z,6.43
2019-01-02T06:05:34.021Z,6.00
2019-01-02T06:07:39.267Z,6.47
2019-01-02T06:09:44.601Z,6.73
2019-01-02T06:11:49.973Z,7.47
2019-01-02T06:13:57.367Z,7.30
2019-01-02T06:16:08.256Z,6.17
2019-01-02T06:18:15.570Z,7.07
2019-01-02T06:20:23.324Z,7.07
2019-01-02T06:22:28.184Z,6.80
2019-01-02T06:24:33.448Z,6.50
2019-01-02T06:26:38.387Z,7.33
2019-01-02T06:28:43.194Z,7.13
2019-01-02T06:30:50.897Z,7.10
2019-01-02T06:32:55.787Z,6.03
2019-01-02T06:35:00.678Z,5.83
2019-01-02T06:37:08.943Z,7.37
2019-01-02T06:39:13.766Z,7.00
2019-01-02T06:41:18.608Z,6.67
2019-01-02T06:43:23.913Z,6.97
2019-01-02T06:45:50.795Z,7.33
2019-01-02T06:48:11.340Z,7.03
2019-01-02T06:50:31.595Z,6.20
2019-01-02T06:52:54.386Z,7.23
2019-01-02T06:55:08.578Z,7.70
2019-01-02T06:57:27.232Z,6.97
2019-01-02T06:59:41.951Z,6.07
2019-01-02T07:02:26.851Z,7.40
2019-01-02T07:04:41.409Z,6.53
2019-01-02T07:07:14.631Z,7.17
2019-01-02T07:09:45.045Z,7.00
2019-01-02T07:12:01.779Z,7.13
2019-01-02T07:14:26.774Z,6.70
2019-01-02T07:16:55.475Z,7.17
2019-01-02T07:19:17.589Z,6.83
2019-01-02T07:21:52.880Z,7.30
2019-01-02T07:24:19.239Z,8.07
2019-01-02T07:26:34.789Z,6.90
2019-01-02T07:28:53.444Z,7.07
2019-01-02T07:31:10.623Z,8.40
2019-01-02T07:33:40.858Z,7.50
2019-01-02T07:36:43.561Z,8.00
2019-01-02T07:39:17.595Z,7.70
2019-01-02T07:42:05.759Z,8.03
2019-01-02T07:45:02.025Z,7.33
2019-01-02T07:47:49.416Z,8.17
2019-01-02T07:50:45.144Z,8.33
2019-01-02T07:53:47.607Z,7.50
2019-01-02T07:56:35.472Z,8.27
2019-01-02T07:59:28.721Z,7.23
2019-01-02T08:02:03.607Z,6.70
2019-01-02T08:04:52.955Z,8.90
2019-01-02T08:07:43.694Z,7.47
2019-01-02T08:10:29.773Z,8.40
2019-01-02T08:13:23.911Z,7.67
2019-01-02T08:16:48.918Z,6.47
2019-01-02T08:19:48.416Z,6.83
2019-01-02T08:22:30.334Z,7.30
2019-01-02T08:25:38.494Z,5.63
2019-01-02T08:28:24.623Z,6.93
2019-01-02T08:30:55.935Z,6.97
2019-01-02T08:33:49.171Z,6.60
2019-01-02T08:36:36.502Z,6.90
2019-01-02T08:39:29.398Z,6.23
2019-01-02T08:51:48.910Z,5.83
2019-01-02T08:54:33.586Z,5.67
2019-01-02T09:00:43.886Z,5.83
2019-01-02T09:03:52.260Z,5.90
2019-01-02T09:07:10.166Z,4.80
2019-01-02T09:09:59.598Z,4.87
2019-01-02T09:13:00.609Z,4.67
2019-01-02T09:15:32.765Z,4.57
2019-01-02T09:18:32.230Z,5.27
2019-01-02T09:21:20.879Z,5.10
2019-01-02T09:24:09.856Z,5.30
2019-01-02T09:27:07.437Z,5.67
2019-01-02T09:30:06.861Z,5.50
2019-01-02T09:33:04.225Z,5.40
2019-01-02T09:36:18.982Z,4.80
2019-01-02T09:39:33.012Z,5.50
2019-01-02T09:42:24.298Z,4.80
2019-01-02T09:45:05.561Z,5.07
2019-01-02T09:48:44.198Z,5.07
2019-01-02T09:51:26.430Z,5.13
2019-01-02T09:54:24.307Z,5.87
2019-01-02T09:59:05.239Z,5.33
2019-01-02T10:01:09.041Z,5.80
2019-01-02T10:03:25.656Z,5.37
2019-01-02T10:05:44.975Z,5.57
2019-01-02T10:10:24.821Z,5.83
2019-01-02T10:12:55.440Z,5.80
2019-01-02T10:15:38.661Z,5.90
2019-01-02T10:17:55.464Z,5.33
2019-01-02T10:20:21.207Z,5.60
2019-01-02T10:22:40.562Z,6.37
2019-01-02T10:24:58.860Z,6.03
2019-01-02T10:27:15.059Z,6.23
2019-01-02T10:29:57.852Z,5.23
2019-01-02T10:32:40.727Z,5.70
2019-01-02T10:34:57.206Z,5.57
2019-01-02T10:37:13.973Z,5.50
2019-01-02T10:42:41.542Z,5.27
2019-01-02T10:44:58.418Z,5.00
2019-01-02T10:47:14.624Z,5.30
2019-01-02T10:49:33.856Z,4.67
2019-01-02T10:51:51.904Z,3.90
2019-01-02T10:54:35.688Z,4.43
2019-01-02T10:57:19.595Z,3.87
2019-01-02T11:00:02.471Z,3.60
2019-01-02T11:02:46.164Z,3.73
2019-01-02T11:05:02.390Z,4.13
2019-01-02T11:07:23.327Z,4.23
2019-01-02T11:10:06.181Z,4.17
2019-01-02T11:12:50.258Z,4.63
2019-01-02T11:15:12.763Z,3.80
2019-01-02T11:17:29.637Z,4.03
2019-01-02T11:20:13.487Z,4.80
2019-01-02T11:22:44.286Z,4.47
2019-01-02T11:25:46.820Z,3.93
2019-01-02T11:28:08.776Z,4.27
2019-01-02T11:32:42.257Z,4.17
2019-01-02T11:35:00.297Z,3.50
2019-01-02T11:37:16.285Z,4.20
2019-01-02T11:39:32.576Z,3.97
2019-01-02T11:41:49.207Z,3.80
2019-01-02T11:44:06.228Z,4.23
2019-01-02T11:47:07.868Z,3.60
2019-01-02T11:49:40.378Z,3.70
2019-01-02T11:52:00.372Z,3.67
2019-01-02T11:54:18.315Z,3.93
2019-01-02T11:56:35.569Z,4.10
2019-01-02T11:58:52.437Z,3.93
2019-01-02T12:03:25.672Z,2.93
2019-01-02T12:05:32.594Z,3.50
2019-01-02T12:07:57.785Z,3.30
2019-01-02T12:15:26.949Z,3.70
2019-01-02T12:17:43.067Z,3.27
2019-01-02T12:23:02.537Z,3.17
2019-01-02T12:25:20.453Z,3.60
2019-01-02T12:27:36.854Z,2.80
2019-01-02T12:29:54.237Z,2.73
2019-01-02T12:32:10.520Z,3.73
2019-01-02T12:36:44.269Z,3.30
2019-01-02T12:39:02.550Z,2.87
2019-01-02T12:41:18.873Z,2.47
2019-01-02T12:43:35.598Z,3.27
2019-01-02T12:45:52.203Z,2.60
2019-01-02T12:48:08.850Z,2.60
2019-01-02T12:50:16.115Z,2.70
2019-01-02T12:52:42.296Z,2.43
2019-01-02T12:54:59.552Z,2.50
2019-01-02T12:57:18.185Z,2.37
2019-01-02T12:59:42.113Z,2.30
2019-01-02T13:07:44.430Z,2.37
2019-01-02T13:10:02.203Z,2.33
2019-01-02T13:12:19.216Z,2.30
2019-01-02T13:14:35.383Z,2.50
2019-01-02T13:17:15.279Z,2.30
2019-01-02T13:20:01.906Z,1.83
2019-01-02T13:30:48.349Z,1.70
2019-01-02T13:33:31.751Z,2.63
2019-01-02T13:36:15.038Z,2.50
2019-01-02T13:38:31.564Z,2.27
2019-01-02T13:41:15.183Z,2.37
2019-01-02T13:46:41.169Z,2.20
2019-01-02T13:48:59.301Z,2.03
2019-01-02T13:51:28.607Z,1.93
2019-01-02T13:56:26.985Z,2.40
2019-01-02T13:59:09.852Z,2.13
2019-01-02T14:01:48.259Z,2.40
2019-01-02T14:03:54.218Z,2.63
2019-01-02T14:06:10.914Z,2.17
2019-01-02T14:08:30.092Z,2.47
2019-01-02T14:10:47.190Z,1.87
2019-01-02T14:15:53.605Z,2.20
2019-01-02T14:18:11.379Z,2.10
2019-01-02T14:20:24.179Z,2.73
2019-01-02T14:22:49.835Z,2.40
2019-01-02T14:25:30.734Z,2.53
2019-01-02T14:27:47.427Z,2.53
2019-01-02T14:30:03.405Z,2.53
2019-01-02T14:32:24.991Z,2.37
2019-01-02T14:34:46.368Z,2.43
2019-01-02T14:37:03.025Z,2.43
2019-01-02T14:39:29.590Z,2.77
2019-01-02T14:41:49.645Z,2.13
2019-01-02T14:44:08.589Z,2.27
2019-01-02T14:46:25.688Z,2.27
2019-01-02T14:48:42.158Z,2.63
2019-01-02T14:51:00.759Z,2.03
2019-01-02T14:53:17.374Z,2.23
2019-01-02T14:55:34.925Z,2.33
2019-01-02T14:57:59.141Z,2.30
2019-01-02T15:03:29.091Z,2.00
2019-01-02T15:05:45.500Z,2.07
2019-01-02T15:10:21.090Z,2.30
2019-01-02T15:12:44.902Z,1.97
2019-01-02T15:15:05.613Z,1.90
2019-01-02T15:17:11.858Z,2.23
2019-01-02T15:30:15.687Z,1.83
2019-01-02T15:32:43.345Z,2.17
2019-01-02T15:35:02.824Z,2.00
2019-01-02T15:37:14.545Z,2.30
2019-01-02T15:41:45.851Z,2.30
2019-01-02T15:44:09.811Z,2.07
2019-01-02T15:50:01.840Z,1.80
2019-01-02T15:51:50.284Z,2.80
2019-01-02T15:57:18.963Z,2.20
2019-01-02T15:59:39.480Z,2.40
2019-01-02T16:01:57.782Z,2.27
2019-01-02T16:04:18.114Z,1.83
2019-01-02T16:16:14.345Z,2.00
2019-01-02T16:18:01.357Z,2.30
2019-01-02T16:20:47.708Z,2.57
2019-01-02T16:31:15.452Z,2.20
2019-01-02T16:34:49.968Z,2.80
2019-01-02T16:36:34.814Z,2.03
2019-01-02T16:39:13.424Z,1.80
2019-01-02T16:41:42.452Z,2.07
2019-01-02T16:47:17.966Z,2.20
2019-01-02T16:49:47.935Z,2.17
2019-01-02T16:51:36.089Z,1.93
2019-01-02T16:53:59.135Z,2.43
2019-01-02T16:56:17.397Z,2.20
2019-01-02T16:59:03.171Z,2.27
2019-01-02T17:04:17.159Z,2.20
2019-01-02T17:06:14.682Z,1.93
2019-01-02T17:16:40.460Z,2.20
2019-01-02T17:19:05.235Z,2.00
2019-01-02T17:21:29.666Z,2.00
2019-01-02T17:23:53.016Z,1.83
2019-01-02T17:26:15.322Z,1.83
2019-01-02T17:28:35.421Z,1.77
2019-01-02T17:44:05.711Z,2.30
2019-01-02T17:52:03.479Z,2.10
2019-01-02T17:54:16.053Z,2.20
2019-01-02T17:57:07.420Z,2.27
2019-01-02T17:59:37.484Z,2.40
2019-01-02T18:01:56.568Z,2.10
2019-01-02T18:04:21.969Z,1.77
2019-01-02T18:09:27.085Z,1.90
2019-01-02T18:11:43.606Z,2.67
2019-01-02T18:13:50.714Z,2.30
2019-01-02T18:18:11.739Z,2.00
2019-01-02T18:20:38.271Z,2.33
2019-01-02T18:31:38.777Z,2.33
2019-01-02T18:36:46.599Z,2.70
2019-01-02T18:39:07.605Z,2.17
2019-01-02T18:41:27.400Z,2.17
2019-01-02T18:44:20.565Z,2.33
2019-01-02T18:46:56.756Z,2.53
2019-01-02T18:50:05.779Z,2.37
2019-01-02T18:52:32.809Z,2.50
2019-01-02T18:55:06.213Z,2.47
2019-01-02T18:57:30.507Z,2.40
2019-01-02T19:05:12.671Z,2.07
2019-01-02T19:13:10.777Z,2.53
2019-01-02T19:18:21.382Z,2.80
2019-01-02T19:20:44.597Z,2.73
2019-01-02T19:23:07.852Z,2.10
2019-01-02T19:25:29.491Z,2.77
2019-01-02T19:27:58.308Z,2.00
2019-01-02T19:33:27.601Z,2.37
2019-01-02T19:35:27.013Z,2.50
2019-01-02T19:40:51.471Z,2.43
2019-01-02T19:52:09.347Z,2.23
2019-01-02T19:58:58.933Z,2.07
2019-01-02T20:01:26.951Z,1.80
2019-01-02T20:06:40.091Z,2.20
2019-01-02T20:16:36.274Z,2.27
2019-01-02T20:24:20.988Z,2.10
2019-01-02T20:26:42.844Z,2.10
2019-01-02T20:29:17.262Z,1.87
2019-01-02T20:32:09.327Z,2.10
2019-01-02T20:34:00.742Z,2.20
2019-01-02T20:36:52.327Z,2.07
2019-01-02T20:38:44.005Z,2.43
2019-01-02T20:41:04.857Z,2.20
2019-01-02T20:46:25.038Z,1.67
2019-01-02T20:56:56.142Z,2.10
2019-01-02T21:02:41.375Z,1.57
2019-01-02T21:04:54.052Z,2.27
2019-01-02T21:07:13.415Z,2.07
2019-01-02T21:09:41.074Z,2.10
2019-01-02T21:14:50.992Z,1.63
2019-01-02T21:17:12.612Z,2.00
2019-01-02T21:19:31.176Z,1.90
2019-01-02T21:22:32.316Z,2.03
2019-01-02T21:24:25.379Z,1.80
2019-01-02T21:29:48.114Z,2.40
2019-01-02T21:40:16.222Z,1.90
2019-01-02T21:44:57.225Z,1.40
2019-01-02T21:47:20.130Z,1.50
2019-01-02T21:55:13.443Z,2.10
2019-01-02T21:57:35.659Z,1.50
2019-01-02T21:59:55.506Z,1.63
2019-01-02T22:05:13.029Z,1.60
2019-01-02T22:13:29.481Z,1.70
2019-01-02T22:15:52.850Z,1.63
2019-01-02T22:18:25.244Z,1.57
2019-01-02T22:21:31.473Z,1.37
2019-01-02T22:23:08.669Z,1.80
2019-01-02T22:25:54.450Z,1.70
2019-01-02T22:28:01.016Z,1.60
2019-01-02T22:30:26.835Z,2.30
2019-01-02T22:35:54.311Z,2.17
2019-01-02T22:40:53.593Z,1.73
2019-01-02T22:45:49.276Z,2.30
2019-01-02T22:48:37.675Z,2.20
2019-01-02T22:50:56.167Z,2.40
2019-01-02T23:02:09.906Z,2.30
2019-01-02T23:04:39.187Z,2.10
2019-01-02T23:06:58.896Z,2.50
2019-01-02T23:18:19.743Z,2.33
2019-01-02T23:21:08.442Z,2.00
2019-01-02T23:23:40.412Z,2.27
2019-01-02T23:32:34.005Z,2.37
2019-01-02T23:43:15.861Z,2.03
2019-01-02T23:45:51.160Z,1.80
2019-01-02T23:48:33.857Z,2.20
2019-01-02T23:51:15.505Z,1.80
2019-01-02T23:57:33.456Z,2.40
